createdAt,value
2022-08-11T00:01:16.234Z,21.69
2022-08-11T00:03:51.363Z,21.64
2022-08-11T00:06:27.796Z,21.61
2022-08-11T00:08:57.745Z,21.59
2022-08-11T00:11:38.299Z,21.53
2022-08-11T00:14:18.021Z,21.50
2022-08-11T00:16:56.770Z,21.46
2022-08-11T00:20:13.794Z,21.43
2022-08-11T00:22:24.170Z,21.40
2022-08-11T00:24:56.197Z,21.36
2022-08-11T00:27:40.593Z,21.32
2022-08-11T00:30:13.375Z,21.30
2022-08-11T00:32:45.614Z,21.27
2022-08-11T00:35:56.294Z,21.22
2022-08-11T00:38:08.556Z,21.18
2022-08-11T00:40:44.011Z,21.15
2022-08-11T00:43:25.092Z,21.08
2022-08-11T00:46:12.404Z,21.01
2022-08-11T00:48:59.169Z,20.94
2022-08-11T00:52:03.851Z,20.85
2022-08-11T00:55:34.339Z,20.75
2022-08-11T00:58:51.136Z,20.69
2022-08-11T01:01:40.578Z,20.63
2022-08-11T01:04:55.794Z,20.58
2022-08-11T01:08:24.185Z,20.51
2022-08-11T01:11:55.891Z,20.43
2022-08-11T01:14:54.656Z,20.39
2022-08-11T01:18:23.661Z,20.33
2022-08-11T01:21:39.837Z,20.30
2022-08-11T01:24:58.048Z,20.26
2022-08-11T01:28:41.908Z,20.22
2022-08-11T01:32:05.985Z,20.19
2022-08-11T01:35:31.882Z,20.17
2022-08-11T01:38:44.477Z,20.15
2022-08-11T01:42:20.294Z,20.12
2022-08-11T01:45:23.980Z,20.10
2022-08-11T01:48:06.396Z,20.06
2022-08-11T01:50:55.277Z,20.03
2022-08-11T01:53:35.803Z,20.00
2022-08-11T01:56:24.462Z,19.96
2022-08-11T01:59:10.004Z,19.93
2022-08-11T02:02:02.157Z,19.90
2022-08-11T02:04:37.048Z,19.88
2022-08-11T02:07:18.113Z,19.81
2022-08-11T02:10:29.630Z,19.79
2022-08-11T02:13:15.663Z,19.77
2022-08-11T02:15:51.317Z,19.75
2022-08-11T02:18:48.911Z,19.72
2022-08-11T02:21:48.131Z,19.67
2022-08-11T02:24:27.912Z,19.64
2022-08-11T02:27:15.008Z,19.60
2022-08-11T02:29:55.920Z,19.59
2022-08-11T02:32:51.389Z,19.57
2022-08-11T02:35:26.557Z,19.54
2022-08-11T02:38:13.349Z,19.50
2022-08-11T02:40:54.473Z,19.48
2022-08-11T02:43:48.006Z,19.45
2022-08-11T02:46:28.801Z,19.41
2022-08-11T02:49:31.625Z,19.36
2022-08-11T02:52:09.752Z,19.30
2022-08-11T02:54:46.106Z,19.27
2022-08-11T02:57:34.966Z,19.21
2022-08-11T03:00:09.203Z,19.20
2022-08-11T03:02:52.624Z,19.16
2022-08-11T03:05:43.358Z,19.13
2022-08-11T03:08:37.308Z,19.08
2022-08-11T03:11:30.864Z,19.05
2022-08-11T03:14:38.077Z,19.01
2022-08-11T03:17:22.833Z,18.97
2022-08-11T03:20:05.756Z,18.95
2022-08-11T03:22:41.591Z,18.95
2022-08-11T03:25:19.374Z,18.91
2022-08-11T03:27:58.976Z,18.86
2022-08-11T03:30:45.672Z,18.82
2022-08-11T03:33:42.030Z,18.81
2022-08-11T03:36:33.777Z,18.75
2022-08-11T03:39:32.157Z,18.69
2022-08-11T03:42:12.490Z,18.65
2022-08-11T03:45:01.053Z,18.62
2022-08-11T03:48:02.109Z,18.57
2022-08-11T03:50:54.969Z,18.55
2022-08-11T03:53:45.295Z,18.53
2022-08-11T03:57:10.964Z,18.48
2022-08-11T04:00:20.540Z,18.46
2022-08-11T04:03:41.730Z,18.44
2022-08-11T04:06:47.551Z,18.42
2022-08-11T04:10:08.463Z,18.42
2022-08-11T04:13:14.185Z,18.40
2022-08-11T04:16:24.354Z,18.40
2022-08-11T04:19:51.540Z,18.40
2022-08-11T04:23:10.161Z,18.39
2022-08-11T04:26:27.163Z,18.40
2022-08-11T04:29:12.008Z,18.41
2022-08-11T04:31:55.348Z,18.43
2022-08-11T04:34:52.752Z,18.43
2022-08-11T04:37:53.701Z,18.44
2022-08-11T04:41:16.370Z,18.45
2022-08-11T04:44:31.779Z,18.45
2022-08-11T04:48:03.759Z,18.46
2022-08-11T04:51:17.222Z,18.48
2022-08-11T04:54:19.336Z,18.52
2022-08-11T04:57:09.530Z,18.58
2022-08-11T05:00:31.673Z,18.61
2022-08-11T05:03:57.214Z,18.64
2022-08-11T05:07:21.935Z,18.64
2022-08-11T05:10:15.462Z,18.71
2022-08-11T05:12:50.872Z,18.76
2022-08-11T05:15:49.527Z,18.82
2022-08-11T05:18:42.788Z,18.87
2022-08-11T05:21:44.414Z,18.92
2022-08-11T05:24:39.862Z,18.96
2022-08-11T05:27:28.525Z,19.01
2022-08-11T05:30:20.954Z,19.05
2022-08-11T05:33:20.421Z,19.10
2022-08-11T05:36:00.131Z,19.12
2022-08-11T05:38:53.511Z,19.16
2022-08-11T05:41:45.603Z,19.21
2022-08-11T05:44:39.071Z,19.23
2022-08-11T05:47:27.557Z,19.26
2022-08-11T05:50:15.264Z,19.28
2022-08-11T05:53:09.158Z,19.33
2022-08-11T05:56:02.876Z,19.38
2022-08-11T05:58:42.806Z,19.44
2022-08-11T06:01:14.119Z,19.51
2022-08-11T06:04:04.185Z,19.56
2022-08-11T06:06:33.318Z,19.63
2022-08-11T06:09:02.907Z,19.71
2022-08-11T06:11:43.527Z,19.78
2022-08-11T06:14:15.970Z,19.86
2022-08-11T06:16:49.572Z,19.93
2022-08-11T06:19:23.130Z,20.02
2022-08-11T06:21:53.255Z,20.11
2022-08-11T06:24:22.925Z,20.18
2022-08-11T06:27:12.645Z,20.25
2022-08-11T06:29:54.355Z,20.33
2022-08-11T06:32:28.309Z,20.42
2022-08-11T06:35:16.909Z,20.50
2022-08-11T06:38:03.522Z,20.59
2022-08-11T06:40:42.985Z,20.71
2022-08-11T06:43:19.980Z,20.80
2022-08-11T06:46:03.328Z,20.91
2022-08-11T06:48:34.679Z,21.02
2022-08-11T06:51:14.609Z,21.12
2022-08-11T06:54:03.872Z,21.19
2022-08-11T06:57:28.300Z,21.28
2022-08-11T07:00:02.173Z,21.40
2022-08-11T07:02:35.608Z,21.52
2022-08-11T07:05:11.004Z,21.61
2022-08-11T07:08:52.668Z,21.72
2022-08-11T07:12:13.187Z,21.85
2022-08-11T07:15:07.693Z,22.00
2022-08-11T07:17:49.416Z,22.16
2022-08-11T07:20:37.239Z,22.41
2022-08-11T07:23:26.802Z,22.86
2022-08-11T07:26:15.170Z,23.88
2022-08-11T07:28:58.642Z,25.25
2022-08-11T07:31:42.063Z,26.54
2022-08-11T07:34:28.061Z,27.65
2022-08-11T07:37:00.305Z,28.52
2022-08-11T07:39:32.872Z,29.16
2022-08-11T07:42:07.128Z,29.65
2022-08-11T07:44:58.757Z,30.17
2022-08-11T07:47:55.146Z,30.59
2022-08-11T07:50:43.201Z,30.84
2022-08-11T07:53:12.890Z,30.93
2022-08-11T07:55:50.919Z,31.07
2022-08-11T07:58:45.509Z,31.11
2022-08-11T08:01:41.738Z,31.15
2022-08-11T08:04:31.386Z,31.01
2022-08-11T08:07:22.169Z,30.93
2022-08-11T08:10:09.780Z,30.88
2022-08-11T08:13:00.355Z,30.89
2022-08-11T08:15:48.422Z,30.96
2022-08-11T08:18:26.487Z,31.08
2022-08-11T08:21:11.979Z,31.23
2022-08-11T08:23:44.175Z,31.36
2022-08-11T08:26:35.162Z,31.47
2022-08-11T08:29:26.056Z,31.63
2022-08-11T08:31:57.231Z,31.96
2022-08-11T08:34:26.483Z,32.28
2022-08-11T08:36:55.800Z,32.51
2022-08-11T08:39:25.940Z,32.70
2022-08-11T08:42:00.358Z,32.84
2022-08-11T08:44:40.529Z,33.07
2022-08-11T08:47:15.101Z,33.29
2022-08-11T08:50:08.236Z,33.48
2022-08-11T08:52:43.895Z,33.66
2022-08-11T08:55:21.612Z,33.68
2022-08-11T08:57:53.689Z,33.68
2022-08-11T09:00:23.852Z,33.90
2022-08-11T09:02:53.590Z,34.02
2022-08-11T09:05:23.393Z,34.15
2022-08-11T09:07:58.038Z,34.05
2022-08-11T09:10:30.945Z,34.12
2022-08-11T09:13:00.987Z,34.34
2022-08-11T09:15:30.747Z,34.57
2022-08-11T09:18:06.012Z,34.70
2022-08-11T09:20:38.583Z,34.77
2022-08-11T09:26:41.711Z,35.23
2022-08-11T09:29:12.422Z,35.42
2022-08-11T09:31:41.821Z,35.66
2022-08-11T09:34:11.535Z,35.93
2022-08-11T09:36:59.916Z,36.12
2022-08-11T09:39:48.653Z,35.65
2022-08-11T09:42:23.108Z,35.48
2022-08-11T09:44:53.255Z,35.73
2022-08-11T09:47:26.590Z,36.07
2022-08-11T09:50:01.363Z,36.47
2022-08-11T09:52:35.682Z,36.79
2022-08-11T09:55:11.112Z,37.09
2022-08-11T09:58:04.383Z,37.34
2022-08-11T10:00:40.195Z,37.28
2022-08-11T10:03:13.261Z,37.24
2022-08-11T10:06:08.010Z,37.00
2022-08-11T10:08:39.133Z,36.85
2022-08-11T10:11:12.052Z,36.76
2022-08-11T10:14:32.910Z,36.79
2022-08-11T10:16:53.894Z,36.86
2022-08-11T10:19:23.117Z,36.98
2022-08-11T10:22:09.325Z,37.17
2022-08-11T10:24:56.265Z,37.18
2022-08-11T10:27:34.790Z,37.14
2022-08-11T10:30:32.893Z,37.23
2022-08-11T10:33:37.048Z,37.41
2022-08-11T10:36:16.519Z,37.50
2022-08-11T10:38:50.344Z,37.43
2022-08-11T10:41:37.125Z,37.53
2022-08-11T10:44:25.657Z,37.73
2022-08-11T10:47:13.318Z,37.81
2022-08-11T10:49:42.314Z,37.89
2022-08-11T10:52:29.603Z,38.01
2022-08-11T10:55:15.969Z,37.98
2022-08-11T10:58:04.727Z,38.03
2022-08-11T11:00:34.977Z,37.86
2022-08-11T11:03:22.611Z,37.94
2022-08-11T11:06:27.219Z,37.99
2022-08-11T11:09:00.016Z,37.69
2022-08-11T11:11:56.446Z,37.62
2022-08-11T11:14:50.752Z,37.66
2022-08-11T11:17:48.570Z,37.83
2022-08-11T11:20:34.736Z,37.92
2022-08-11T11:23:16.707Z,37.96
2022-08-11T11:26:11.314Z,38.10
2022-08-11T11:29:21.443Z,38.08
2022-08-11T11:32:07.551Z,38.20
2022-08-11T11:34:59.351Z,38.41
2022-08-11T11:37:34.549Z,38.59
2022-08-11T11:40:04.318Z,38.81
2022-08-11T11:42:32.963Z,38.72
2022-08-11T11:45:01.843Z,38.77
2022-08-11T11:47:31.387Z,38.90
2022-08-11T11:50:00.233Z,39.15
2022-08-11T11:52:31.372Z,39.24
2022-08-11T11:55:00.946Z,39.23
2022-08-11T11:57:59.388Z,39.35
2022-08-11T12:00:48.888Z,39.28
2022-08-11T12:03:19.080Z,39.40
2022-08-11T12:05:48.208Z,39.45
2022-08-11T12:08:22.392Z,39.59
2022-08-11T12:11:16.166Z,39.66
2022-08-11T12:13:47.196Z,39.36
2022-08-11T12:16:32.871Z,39.08
2022-08-11T12:19:07.126Z,38.88
2022-08-11T12:21:37.560Z,38.94
2022-08-11T12:24:29.123Z,39.31
2022-08-11T12:27:18.244Z,39.43
2022-08-11T12:29:55.040Z,39.74
2022-08-11T12:32:26.863Z,39.83
2022-08-11T12:34:56.928Z,39.87
2022-08-11T12:37:31.284Z,39.88
2022-08-11T12:40:43.099Z,39.78
2022-08-11T12:43:37.986Z,39.24
2022-08-11T12:46:11.142Z,39.19
2022-08-11T12:49:05.492Z,39.50
2022-08-11T12:52:13.915Z,39.79
2022-08-11T12:54:57.258Z,40.10
2022-08-11T12:57:54.574Z,40.41
2022-08-11T13:00:42.410Z,40.68
2022-08-11T13:03:30.517Z,40.74
2022-08-11T13:06:02.544Z,40.86
2022-08-11T13:08:35.398Z,41.14
2022-08-11T13:11:22.925Z,41.22
2022-08-11T13:13:57.945Z,41.26
2022-08-11T13:16:31.108Z,41.58
2022-08-11T13:19:01.860Z,41.67
2022-08-11T13:21:31.632Z,41.69
2022-08-11T13:24:03.588Z,41.86
2022-08-11T13:26:49.747Z,41.86
2022-08-11T13:29:23.837Z,41.83
2022-08-11T13:31:54.400Z,41.78
2022-08-11T13:34:26.814Z,41.78
2022-08-11T13:36:59.315Z,41.81
2022-08-11T13:39:31.056Z,41.68
2022-08-11T13:42:02.961Z,41.71
2022-08-11T13:44:37.798Z,41.64
2022-08-11T13:47:09.226Z,41.77
2022-08-11T13:49:40.396Z,41.97
2022-08-11T13:52:14.793Z,42.02
2022-08-11T13:54:44.995Z,42.01
2022-08-11T13:58:07.706Z,42.16
2022-08-11T14:00:28.136Z,42.48
2022-08-11T14:02:58.629Z,42.60
2022-08-11T14:05:30.242Z,42.63
2022-08-11T14:08:06.038Z,42.80
2022-08-11T14:10:36.780Z,42.62
2022-08-11T14:13:29.141Z,42.80
2022-08-11T14:16:14.117Z,43.01
2022-08-11T14:18:51.333Z,43.03
2022-08-11T14:21:40.161Z,43.13
2022-08-11T14:24:11.533Z,42.96
2022-08-11T14:26:44.277Z,42.90
2022-08-11T14:29:17.245Z,42.65
2022-08-11T14:31:50.177Z,42.59
2022-08-11T14:34:22.240Z,42.45
2022-08-11T14:36:53.764Z,42.47
2022-08-11T14:39:25.319Z,42.66
2022-08-11T14:42:14.436Z,42.78
2022-08-11T14:45:05.060Z,42.72
2022-08-11T14:47:37.526Z,42.68
2022-08-11T14:50:12.473Z,42.51
2022-08-11T14:52:50.081Z,42.18
2022-08-11T14:55:37.968Z,42.01
2022-08-11T14:58:09.802Z,41.97
2022-08-11T15:00:40.349Z,42.03
2022-08-11T15:03:13.403Z,42.10
2022-08-11T15:05:56.318Z,42.22
2022-08-11T15:08:50.217Z,42.14
2022-08-11T15:11:39.292Z,42.01
2022-08-11T15:14:10.932Z,42.12
2022-08-11T15:17:01.484Z,42.21
2022-08-11T15:19:40.404Z,41.99
2022-08-11T15:22:29.152Z,41.93
2022-08-11T15:25:00.103Z,41.97
2022-08-11T15:27:49.505Z,41.70
2022-08-11T15:30:35.667Z,41.43
2022-08-11T15:33:30.039Z,41.47
2022-08-11T15:36:20.549Z,41.55
2022-08-11T15:38:55.762Z,41.68
2022-08-11T15:41:58.512Z,41.74
2022-08-11T15:45:05.471Z,41.62
2022-08-11T15:47:41.719Z,41.43
2022-08-11T15:50:17.365Z,41.18
2022-08-11T15:52:54.462Z,40.79
2022-08-11T15:55:24.571Z,40.45
2022-08-11T15:58:14.120Z,40.07
2022-08-11T16:01:08.628Z,40.04
2022-08-11T16:04:09.080Z,40.15
2022-08-11T16:06:47.812Z,40.21
2022-08-11T16:09:46.965Z,40.29
2022-08-11T16:12:22.915Z,40.10
2022-08-11T16:15:12.905Z,39.92
2022-08-11T16:17:45.953Z,40.01
2022-08-11T16:20:18.766Z,40.07
2022-08-11T16:22:57.190Z,40.13
2022-08-11T16:27:03.990Z,40.12
2022-08-11T16:28:26.405Z,40.15
2022-08-11T16:30:57.655Z,40.01
2022-08-11T16:33:49.422Z,39.79
2022-08-11T16:36:34.387Z,39.44
2022-08-11T16:39:04.090Z,38.99
2022-08-11T16:41:55.961Z,38.73
2022-08-11T16:44:43.562Z,38.44
2022-08-11T16:47:17.653Z,38.28
2022-08-11T16:50:08.721Z,37.95
2022-08-11T16:52:37.337Z,37.65
2022-08-11T16:55:07.221Z,37.46
2022-08-11T16:57:56.233Z,37.45
2022-08-11T17:00:25.887Z,37.63
2022-08-11T17:03:28.194Z,37.74
2022-08-11T17:06:14.217Z,37.79
2022-08-11T17:09:05.861Z,37.72
2022-08-11T17:11:58.864Z,37.77
2022-08-11T17:14:38.339Z,37.85
2022-08-11T17:17:13.548Z,37.77
2022-08-11T17:20:42.317Z,37.43
2022-08-11T17:22:58.426Z,37.30
2022-08-11T17:25:29.298Z,37.18
2022-08-11T17:28:00.672Z,36.91
2022-08-11T17:30:45.532Z,36.64
2022-08-11T17:33:33.250Z,36.34
2022-08-11T17:36:03.521Z,36.09
2022-08-11T17:38:34.597Z,36.00
2022-08-11T17:41:23.214Z,35.98
2022-08-11T17:44:12.365Z,35.92
2022-08-11T17:47:05.657Z,35.83
2022-08-11T17:49:38.035Z,35.66
2022-08-11T17:52:25.924Z,35.32
2022-08-11T17:55:16.818Z,34.89
2022-08-11T17:58:23.109Z,34.46
2022-08-11T18:00:52.498Z,34.06
2022-08-11T18:03:39.608Z,33.68
2022-08-11T18:06:12.888Z,33.22
2022-08-11T18:09:02.629Z,32.85
2022-08-11T18:12:11.132Z,32.48
2022-08-11T18:15:00.738Z,32.08
2022-08-11T18:17:46.937Z,31.79
2022-08-11T18:20:34.365Z,31.53
2022-08-11T18:23:41.693Z,31.27
2022-08-11T18:26:36.498Z,31.01
2022-08-11T18:29:25.774Z,30.79
2022-08-11T18:32:20.723Z,30.61
2022-08-11T18:35:10.666Z,30.41
2022-08-11T18:38:05.746Z,30.23
2022-08-11T18:40:54.304Z,30.07
2022-08-11T18:43:44.398Z,29.92
2022-08-11T18:46:36.938Z,29.77
2022-08-11T18:50:01.771Z,29.62
2022-08-11T18:52:41.199Z,29.48
2022-08-11T18:55:34.809Z,29.35
2022-08-11T18:58:24.688Z,29.23
2022-08-11T19:01:16.762Z,29.11
2022-08-11T19:04:11.741Z,29.01
2022-08-11T19:07:04.080Z,28.89
2022-08-11T19:09:52.347Z,28.78
2022-08-11T19:12:43.933Z,28.67
2022-08-11T19:15:31.746Z,28.57
2022-08-11T19:18:20.168Z,28.47
2022-08-11T19:21:06.876Z,28.37
2022-08-11T19:23:57.521Z,28.28
2022-08-11T19:26:44.575Z,28.17
2022-08-11T19:30:07.644Z,28.08
2022-08-11T19:32:40.454Z,27.97
2022-08-11T19:35:28.385Z,27.87
2022-08-11T19:38:17.132Z,27.76
2022-08-11T19:41:03.429Z,27.68
2022-08-11T19:43:51.428Z,27.59
2022-08-11T19:46:42.094Z,27.48
2022-08-11T19:49:30.784Z,27.38
2022-08-11T19:52:18.410Z,27.28
2022-08-11T19:55:05.725Z,27.15
2022-08-11T19:57:54.842Z,27.04
2022-08-11T20:00:42.117Z,26.96
2022-08-11T20:03:31.673Z,26.88
2022-08-11T20:06:21.682Z,26.76
2022-08-11T20:09:11.899Z,26.66
2022-08-11T20:12:01.631Z,26.57
2022-08-11T20:14:52.303Z,26.48
2022-08-11T20:17:43.134Z,26.38
2022-08-11T20:20:33.509Z,26.32
2022-08-11T20:23:24.845Z,26.25
2022-08-11T20:26:30.101Z,26.16
2022-08-11T20:29:18.795Z,26.06
2022-08-11T20:32:09.263Z,25.98
2022-08-11T20:34:58.743Z,25.89
2022-08-11T20:37:51.036Z,25.81
2022-08-11T20:40:42.481Z,25.72
2022-08-11T20:44:07.657Z,25.66
2022-08-11T20:49:53.625Z,25.45
2022-08-11T20:52:48.408Z,25.38
2022-08-11T20:55:51.634Z,25.31
2022-08-11T21:01:47.114Z,25.15
2022-08-11T21:04:55.086Z,25.10
2022-08-11T21:07:55.178Z,25.03
2022-08-11T21:10:50.604Z,24.97
2022-08-11T21:13:42.083Z,24.92
2022-08-11T21:16:32.193Z,24.87
2022-08-11T21:20:00.793Z,24.80
2022-08-11T21:22:58.565Z,24.70
2022-08-11T21:25:48.197Z,24.59
2022-08-11T21:28:36.969Z,24.53
2022-08-11T21:31:25.275Z,24.48
2022-08-11T21:34:12.268Z,24.43
2022-08-11T21:37:00.973Z,24.37
2022-08-11T21:39:47.847Z,24.34
2022-08-11T21:42:38.109Z,24.29
2022-08-11T21:45:27.688Z,24.27
2022-08-11T21:48:15.366Z,24.24
2022-08-11T21:51:01.456Z,24.19
2022-08-11T21:53:47.777Z,24.14
2022-08-11T21:56:34.422Z,24.10
2022-08-11T21:59:21.972Z,24.06
2022-08-11T22:02:12.559Z,24.01
2022-08-11T22:05:00.174Z,23.95
2022-08-11T22:07:46.971Z,23.89
2022-08-11T22:10:40.689Z,23.83
2022-08-11T22:13:31.135Z,23.76
2022-08-11T22:16:19.294Z,23.72
2022-08-11T22:19:08.240Z,23.66
2022-08-11T22:22:02.910Z,23.60
2022-08-11T22:24:52.755Z,23.53
2022-08-11T22:27:40.041Z,23.49
2022-08-11T22:30:29.694Z,23.44
2022-08-11T22:33:25.615Z,23.38
2022-08-11T22:36:14.766Z,23.33
2022-08-11T22:39:03.453Z,23.24
2022-08-11T22:41:49.639Z,23.19
2022-08-11T22:44:36.113Z,23.14
2022-08-11T22:47:23.585Z,23.08
2022-08-11T22:50:16.881Z,23.04
2022-08-11T22:53:03.630Z,23.00
2022-08-11T22:55:50.300Z,22.98
2022-08-11T22:58:40.264Z,22.95
2022-08-11T23:01:26.512Z,22.93
2022-08-11T23:04:15.073Z,22.92
2022-08-11T23:07:03.034Z,22.94
2022-08-11T23:09:49.646Z,22.94
2022-08-11T23:12:36.426Z,22.95
2022-08-11T23:15:24.517Z,22.96
2022-08-11T23:18:10.754Z,22.97
2022-08-11T23:20:58.930Z,22.98
2022-08-11T23:23:48.089Z,23.00
2022-08-11T23:26:36.679Z,23.03
2022-08-11T23:29:25.170Z,23.05
2022-08-11T23:32:12.422Z,23.12
2022-08-11T23:35:37.099Z,23.15
2022-08-11T23:38:09.065Z,23.18
2022-08-11T23:40:58.530Z,23.18
2022-08-11T23:43:44.229Z,23.17
2022-08-11T23:46:30.588Z,23.17
2022-08-11T23:49:20.567Z,23.15
2022-08-11T23:52:07.623Z,23.12
2022-08-11T23:54:54.368Z,23.07
2022-08-11T23:57:47.811Z,23.00
